Time;durP1;ratioP1;P1;durP2;ratioP2;P2;SDS_P1;SDS_P2;PMS_P1;PMS_P2;Temp;Humidity;BMP_temperature;BMP_pressure;BME280_temperature;BME280_humidity;BME280_pressure;Samples;Min_cycle;Max_cycle;Signal;HPM_P1;HPM_P2
2023/07/26 00:00:07;;;;;;;7.15;4.95;;;13.40;99.90;;;;;;5023016;28;20142;-45
2023/07/26 00:02:40;;;;;;;10.40;4.18;;;13.40;99.90;;;;;;5028220;28;20068;-41
2023/07/26 00:05:08;;;;;;;7.88;4.95;;;13.40;99.90;;;;;;5025083;28;20129;-43
2023/07/26 00:07:35;;;;;;;8.90;4.47;;;13.40;99.90;;;;;;5022556;28;20050;-44
2023/07/26 00:10:03;;;;;;;6.95;4.70;;;13.40;99.90;;;;;;5025167;28;20506;-45
2023/07/26 00:12:30;;;;;;;10.98;5.10;;;13.50;99.90;;;;;;5027997;28;20478;-45
2023/07/26 00:14:58;;;;;;;9.55;5.53;;;13.50;99.90;;;;;;5028880;28;20061;-44
2023/07/26 00:17:25;;;;;;;10.80;6.38;;;13.50;99.90;;;;;;5022323;28;20045;-41
2023/07/26 00:19:52;;;;;;;11.00;6.07;;;13.50;99.90;;;;;;5027019;28;20045;-45
2023/07/26 00:22:19;;;;;;;9.55;5.95;;;13.60;99.90;;;;;;5022979;28;20080;-44
2023/07/26 00:24:47;;;;;;;8.98;5.70;;;13.50;99.90;;;;;;5025800;28;20041;-44
2023/07/26 00:27:17;;;;;;;8.05;5.63;;;13.50;99.90;;;;;;5024096;28;20038;-43
2023/07/26 00:29:44;;;;;;;10.80;6.28;;;13.50;99.90;;;;;;5027839;28;20227;-44
2023/07/26 00:32:11;;;;;;;12.30;5.78;;;13.50;99.90;;;;;;5024894;28;20131;-44
2023/07/26 00:34:39;;;;;;;11.27;6.05;;;13.50;99.90;;;;;;5021993;28;20065;-44
2023/07/26 00:37:06;;;;;;;11.52;6.18;;;13.60;99.90;;;;;;5021288;28;20041;-45
2023/07/26 00:39:35;;;;;;;11.77;6.35;;;13.60;99.90;;;;;;5027125;28;20077;-43
2023/07/26 00:42:02;;;;;;;8.23;6.10;;;13.60;99.90;;;;;;5025627;28;20042;-43
2023/07/26 00:44:30;;;;;;;7.88;6.28;;;13.60;99.90;;;;;;5026053;28;20064;-43
2023/07/26 00:46:57;;;;;;;8.77;5.70;;;13.60;99.90;;;;;;5027160;28;20045;-45
2023/07/26 00:49:24;;;;;;;12.32;5.88;;;13.60;99.90;;;;;;5022253;28;20143;-44
2023/07/26 00:51:53;;;;;;;9.93;6.25;;;13.60;99.90;;;;;;5026738;28;20042;-45
2023/07/26 00:54:21;;;;;;;9.68;5.78;;;13.70;99.90;;;;;;5026376;28;20083;-42
2023/07/26 00:56:49;;;;;;;10.50;5.93;;;13.70;99.90;;;;;;5022276;28;20037;-45
2023/07/26 00:59:17;;;;;;;11.88;6.25;;;13.70;99.90;;;;;;5024979;28;20045;-45
2023/07/26 01:01:44;;;;;;;10.68;5.95;;;13.60;99.90;;;;;;5025807;28;20049;-44
2023/07/26 01:04:11;;;;;;;8.95;5.93;;;13.60;99.90;;;;;;5019092;28;20046;-45
2023/07/26 01:07:28;;;;;;;11.00;5.68;;;13.70;99.90;;;;;;5025956;28;20490;-42
2023/07/26 01:10:34;;;;;;;9.65;6.00;;;13.70;99.90;;;;;;5021296;28;20049;-43
2023/07/26 01:13:19;;;;;;;11.50;5.47;;;13.60;99.90;;;;;;5023576;28;20046;-46
2023/07/26 01:15:48;;;;;;;12.55;6.15;;;13.60;99.90;;;;;;5011097;28;20115;-44
2023/07/26 01:18:17;;;;;;;11.43;6.15;;;13.60;99.90;;;;;;5025478;28;20131;-44
2023/07/26 01:20:44;;;;;;;10.40;5.57;;;13.60;99.90;;;;;;5024367;28;20505;-47
2023/07/26 01:23:11;;;;;;;9.88;5.50;;;13.60;99.90;;;;;;5025157;28;20188;-41
2023/07/26 01:25:39;;;;;;;11.25;5.57;;;13.60;99.90;;;;;;5025273;28;20046;-40
2023/07/26 01:28:06;;;;;;;9.15;5.47;;;13.60;99.90;;;;;;5021164;28;20049;-46
2023/07/26 01:30:34;;;;;;;10.45;5.72;;;13.50;99.90;;;;;;5025181;28;20485;-44
2023/07/26 01:33:05;;;;;;;10.55;5.82;;;13.60;99.90;;;;;;5024901;28;20112;-44
2023/07/26 01:35:37;;;;;;;8.75;5.45;;;13.60;99.90;;;;;;5022141;28;20060;-44
2023/07/26 01:38:06;;;;;;;13.95;5.93;;;13.50;99.90;;;;;;5008132;28;20418;-44
2023/07/26 01:40:35;;;;;;;7.78;5.47;;;13.50;99.90;;;;;;5024858;28;20142;-45
2023/07/26 01:43:03;;;;;;;6.82;4.70;;;13.50;99.90;;;;;;5024727;28;20140;-43
2023/07/26 01:45:30;;;;;;;9.32;5.40;;;13.50;99.90;;;;;;5005782;28;20042;-45
2023/07/26 01:47:58;;;;;;;8.77;4.75;;;13.50;99.90;;;;;;5020506;28;20125;-44
2023/07/26 01:50:25;;;;;;;7.95;5.00;;;13.50;99.90;;;;;;5022778;28;20068;-45
2023/07/26 01:52:52;;;;;;;8.93;4.80;;;13.50;99.90;;;;;;5023478;28;20053;-39
2023/07/26 01:55:22;;;;;;;10.57;4.57;;;13.50;99.90;;;;;;5017729;28;20057;-43
2023/07/26 01:57:50;;;;;;;7.72;4.85;;;13.50;99.90;;;;;;5012935;28;20057;-43
2023/07/26 02:00:17;;;;;;;11.68;5.10;;;13.50;99.90;;;;;;5019416;28;20045;-45
2023/07/26 02:02:44;;;;;;;8.93;4.50;;;13.50;99.90;;;;;;5016494;28;20077;-43
2023/07/26 02:05:12;;;;;;;11.13;4.80;;;13.50;99.90;;;;;;5020684;28;20061;-44
2023/07/26 02:07:39;;;;;;;7.85;4.80;;;13.50;99.90;;;;;;5014355;28;20037;-41
2023/07/26 02:10:07;;;;;;;11.15;5.10;;;13.50;99.90;;;;;;5017818;28;20148;-42
2023/07/26 02:12:35;;;;;;;11.20;5.15;;;13.50;99.90;;;;;;5016582;28;20062;-43
2023/07/26 02:15:07;;;;;;;9.25;4.35;;;13.40;99.90;;;;;;5021503;28;20148;-42
2023/07/26 02:17:34;;;;;;;9.20;4.65;;;13.40;99.90;;;;;;5017701;28;20151;-44
2023/07/26 02:20:04;;;;;;;7.82;4.85;;;13.40;99.90;;;;;;5018927;28;20474;-42
2023/07/26 02:22:31;;;;;;;6.97;4.93;;;13.40;99.90;;;;;;5020293;28;20107;-42
2023/07/26 02:24:59;;;;;;;10.05;4.90;;;13.40;99.90;;;;;;5024512;28;20072;-41
2023/07/26 02:27:26;;;;;;;11.00;4.88;;;13.40;99.90;;;;;;5019518;28;20041;-44
2023/07/26 02:29:53;;;;;;;9.40;4.85;;;13.40;99.90;;;;;;5022493;28;20434;-42
2023/07/26 02:32:23;;;;;;;11.05;4.10;;;13.50;99.90;;;;;;5020679;28;20359;-42
2023/07/26 02:34:50;;;;;;;8.75;4.50;;;13.50;99.90;;;;;;5018201;28;20080;-43
2023/07/26 02:37:18;;;;;;;7.00;4.03;;;13.50;99.90;;;;;;5022181;28;20132;-43
2023/07/26 02:39:45;;;;;;;9.38;3.80;;;13.40;99.90;;;;;;5030035;28;20376;-43
2023/07/26 02:42:13;;;;;;;6.10;3.85;;;13.50;99.90;;;;;;5014696;28;20038;-44
2023/07/26 02:44:40;;;;;;;6.60;3.90;;;13.40;99.90;;;;;;5028106;28;20040;-44
2023/07/26 02:47:07;;;;;;;8.40;3.78;;;13.40;99.90;;;;;;5016814;28;20040;-42
2023/07/26 02:49:35;;;;;;;8.25;4.20;;;13.40;99.90;;;;;;5017522;28;20124;-43
2023/07/26 02:52:02;;;;;;;7.30;3.63;;;13.30;99.90;;;;;;5024693;28;20102;-43
2023/07/26 02:54:29;;;;;;;8.18;4.10;;;13.30;99.90;;;;;;5017437;28;20128;-43
2023/07/26 02:56:57;;;;;;;8.82;4.03;;;13.30;99.90;;;;;;5017774;28;20536;-44
2023/07/26 02:59:24;;;;;;;8.15;3.67;;;13.20;99.90;;;;;;5019206;28;20065;-42
2023/07/26 03:01:51;;;;;;;9.30;4.10;;;13.20;99.90;;;;;;5022173;28;20478;-44
2023/07/26 03:04:18;;;;;;;9.20;3.83;;;13.20;99.90;;;;;;5018129;28;20406;-41
2023/07/26 03:06:46;;;;;;;9.48;3.90;;;13.20;99.90;;;;;;5023733;28;20095;-43
2023/07/26 03:09:14;;;;;;;7.75;4.18;;;13.20;99.90;;;;;;5018918;28;20470;-45
2023/07/26 03:11:41;;;;;;;9.48;3.45;;;13.20;99.90;;;;;;5017976;28;20048;-45
2023/07/26 03:14:08;;;;;;;7.13;4.10;;;13.10;99.90;;;;;;5023392;28;20049;-44
2023/07/26 03:16:36;;;;;;;13.05;6.97;;;13.10;99.90;;;;;;5021120;28;20543;-43
2023/07/26 03:19:05;;;;;;;8.43;4.13;;;13.10;99.90;;;;;;5024790;28;20057;-43
2023/07/26 03:21:32;;;;;;;13.63;3.83;;;13.10;99.90;;;;;;5024764;28;20497;-44
2023/07/26 03:24:00;;;;;;;7.70;3.67;;;13.10;99.90;;;;;;5031780;28;20041;-44
2023/07/26 03:26:27;;;;;;;5.95;3.92;;;13.10;99.90;;;;;;5026283;28;20041;-48
2023/07/26 03:28:54;;;;;;;7.13;3.80;;;13.10;99.90;;;;;;5015498;28;20194;-42
2023/07/26 03:31:22;;;;;;;7.18;3.90;;;13.10;99.90;;;;;;5025868;28;20106;-43
2023/07/26 03:33:49;;;;;;;8.38;4.50;;;13.10;99.90;;;;;;5019127;28;20049;-43
2023/07/26 03:36:17;;;;;;;7.82;3.80;;;13.10;99.90;;;;;;5024402;28;20041;-44
2023/07/26 03:38:44;;;;;;;8.70;4.00;;;13.10;99.90;;;;;;5017634;28;20046;-45
2023/07/26 03:41:13;;;;;;;8.70;4.15;;;13.10;99.90;;;;;;5029694;28;20486;-41
2023/07/26 03:43:40;;;;;;;5.88;4.07;;;13.10;99.90;;;;;;5020841;28;20044;-45
2023/07/26 03:46:08;;;;;;;15.27;4.28;;;13.10;99.90;;;;;;5027946;28;20422;-43
2023/07/26 03:48:37;;;;;;;9.80;4.00;;;13.10;99.90;;;;;;5027227;28;20041;-43
2023/07/26 03:51:04;;;;;;;7.25;4.50;;;13.10;99.90;;;;;;5025822;28;20061;-46
2023/07/26 03:53:32;;;;;;;10.07;4.18;;;13.10;99.90;;;;;;5026254;28;20522;-42
2023/07/26 03:55:59;;;;;;;6.60;3.92;;;13.10;99.90;;;;;;5024237;28;20128;-44
2023/07/26 03:58:26;;;;;;;8.45;4.00;;;13.10;99.90;;;;;;5027425;28;20461;-44
2023/07/26 04:00:53;;;;;;;11.10;3.90;;;13.00;99.90;;;;;;5027861;28;20142;-44
2023/07/26 04:03:21;;;;;;;7.97;3.92;;;13.10;99.90;;;;;;5029604;28;20069;-43
2023/07/26 04:05:48;;;;;;;7.80;3.92;;;13.00;99.90;;;;;;5028770;28;20055;-42
2023/07/26 04:08:16;;;;;;;7.72;3.67;;;13.00;99.90;;;;;;5025715;28;20454;-41
2023/07/26 04:10:43;;;;;;;10.02;4.38;;;13.00;99.90;;;;;;5021996;28;20449;-43
2023/07/26 04:13:10;;;;;;;8.00;4.45;;;13.10;99.90;;;;;;5023195;28;20429;-42
2023/07/26 04:15:38;;;;;;;10.93;4.07;;;13.00;99.90;;;;;;5029024;28;20056;-43
2023/07/26 04:18:06;;;;;;;8.98;4.28;;;13.00;99.90;;;;;;5024692;28;20057;-44
2023/07/26 04:20:34;;;;;;;12.43;5.55;;;13.10;99.90;;;;;;5028585;28;20408;-45
2023/07/26 04:23:01;;;;;;;7.35;4.78;;;13.10;99.90;;;;;;5025126;28;20120;-43
2023/07/26 04:25:28;;;;;;;6.50;4.28;;;13.10;99.90;;;;;;5019624;28;20486;-45
2023/07/26 04:27:56;;;;;;;8.32;4.75;;;13.10;99.90;;;;;;5028173;28;20049;-43
2023/07/26 04:30:23;;;;;;;7.10;4.30;;;13.10;99.90;;;;;;5029743;28;20057;-44
2023/07/26 04:32:50;;;;;;;6.07;3.92;;;13.10;99.90;;;;;;5027834;28;20037;-44
2023/07/26 04:35:17;;;;;;;9.68;4.45;;;13.10;99.90;;;;;;5027796;28;20472;-44
2023/07/26 04:37:45;;;;;;;11.23;4.47;;;13.10;99.90;;;;;;5027672;28;20049;-44
2023/07/26 04:40:12;;;;;;;6.40;4.18;;;13.20;99.90;;;;;;5029111;28;20061;-44
2023/07/26 04:42:40;;;;;;;8.18;4.55;;;13.20;99.90;;;;;;5028409;28;20293;-41
2023/07/26 04:45:07;;;;;;;12.75;4.97;;;13.30;99.90;;;;;;5026463;28;20046;-43
2023/07/26 04:47:35;;;;;;;9.02;4.30;;;13.30;99.90;;;;;;5028006;28;20560;-44
2023/07/26 04:50:02;;;;;;;8.40;4.25;;;13.30;99.90;;;;;;5024604;28;20046;-45
2023/07/26 04:52:30;;;;;;;12.32;4.72;;;13.30;99.90;;;;;;5025641;28;20041;-44
2023/07/26 04:54:59;;;;;;;7.28;4.22;;;13.40;99.90;;;;;;5022731;28;20076;-44
2023/07/26 04:57:26;;;;;;;12.98;4.88;;;13.30;99.90;;;;;;5029202;28;20045;-42
2023/07/26 04:59:53;;;;;;;8.02;4.90;;;13.40;99.90;;;;;;5027228;28;20061;-42
2023/07/26 05:02:20;;;;;;;8.63;4.70;;;13.40;99.90;;;;;;5023653;28;20137;-44
2023/07/26 05:04:48;;;;;;;8.90;4.22;;;13.40;99.90;;;;;;5026030;28;20046;-43
2023/07/26 05:07:15;;;;;;;13.00;4.78;;;13.40;99.90;;;;;;5016282;28;20529;-43
2023/07/26 05:09:43;;;;;;;7.53;3.97;;;13.50;99.90;;;;;;5032939;28;20134;-45
2023/07/26 05:12:11;;;;;;;9.85;4.40;;;13.50;99.90;;;;;;5016855;28;20062;-42
2023/07/26 05:14:41;;;;;;;10.60;4.28;;;13.50;99.90;;;;;;5021753;28;20136;-44
2023/07/26 05:17:09;;;;;;;8.77;4.53;;;13.60;99.90;;;;;;5024428;28;20046;-45
2023/07/26 05:19:37;;;;;;;11.85;4.30;;;13.60;99.90;;;;;;5026835;28;20140;-43
2023/07/26 05:22:04;;;;;;;6.25;4.05;;;13.70;99.90;;;;;;5018119;28;20041;-43
2023/07/26 05:24:31;;;;;;;6.80;4.10;;;13.90;99.90;;;;;;5028233;28;20482;-44
2023/07/26 05:26:59;;;;;;;6.85;3.95;;;13.90;99.90;;;;;;5019977;28;20536;-43
2023/07/26 05:29:27;;;;;;;6.47;3.90;;;14.00;99.90;;;;;;5020155;28;20034;-40
2023/07/26 05:31:55;;;;;;;11.13;4.28;;;14.00;99.90;;;;;;5018304;28;20455;-43
2023/07/26 05:34:22;;;;;;;6.75;3.90;;;14.00;99.90;;;;;;5024252;28;20503;-43
2023/07/26 05:36:51;;;;;;;6.68;4.10;;;14.00;99.90;;;;;;5021719;28;20073;-44
2023/07/26 05:39:18;;;;;;;7.85;4.10;;;14.10;99.90;;;;;;5019353;28;20056;-44
2023/07/26 05:41:45;;;;;;;7.43;3.72;;;14.10;99.90;;;;;;5023623;28;20656;-42
2023/07/26 05:44:13;;;;;;;6.32;3.58;;;14.20;99.90;;;;;;5021197;28;20088;-43
2023/07/26 05:46:40;;;;;;;9.43;3.88;;;14.20;99.90;;;;;;5020536;28;20124;-44
2023/07/26 05:49:09;;;;;;;8.48;3.80;;;14.30;99.90;;;;;;5022053;28;20030;-44
2023/07/26 05:51:37;;;;;;;8.65;4.20;;;14.50;99.90;;;;;;5021470;28;20056;-43
2023/07/26 05:54:04;;;;;;;9.00;4.03;;;14.50;99.90;;;;;;5017351;28;20304;-45
2023/07/26 05:56:31;;;;;;;8.15;3.60;;;14.50;99.90;;;;;;5020677;28;20065;-45
2023/07/26 05:58:58;;;;;;;8.13;3.67;;;14.70;99.90;;;;;;5025440;28;20600;-43
2023/07/26 06:01:26;;;;;;;7.80;3.53;;;14.70;99.90;;;;;;5020720;28;20144;-40
2023/07/26 06:03:54;;;;;;;7.45;3.40;;;14.80;99.90;;;;;;5021623;28;20038;-44
2023/07/26 06:06:21;;;;;;;8.13;3.35;;;14.90;99.90;;;;;;5020177;28;20418;-45
2023/07/26 06:08:49;;;;;;;9.25;4.28;;;15.00;99.90;;;;;;5019008;28;20109;-49
2023/07/26 06:11:16;;;;;;;8.07;3.72;;;15.30;99.90;;;;;;5026297;28;20037;-47
2023/07/26 06:13:43;;;;;;;7.45;3.33;;;15.50;99.90;;;;;;5031805;28;20059;-47
2023/07/26 06:16:11;;;;;;;7.85;3.55;;;15.70;99.90;;;;;;5023680;28;20050;-48
2023/07/26 06:18:39;;;;;;;7.43;4.35;;;15.90;99.90;;;;;;5018280;28;20126;-48
2023/07/26 06:21:06;;;;;;;8.18;3.42;;;16.00;99.90;;;;;;5021724;28;20069;-48
2023/07/26 06:23:33;;;;;;;8.07;3.50;;;16.00;99.90;;;;;;5017390;28;20052;-47
2023/07/26 06:26:00;;;;;;;8.57;4.00;;;16.10;99.90;;;;;;5024900;28;20049;-47
2023/07/26 06:28:28;;;;;;;6.32;3.40;;;16.10;99.90;;;;;;5027342;28;20395;-48
2023/07/26 06:30:56;;;;;;;7.97;3.92;;;16.00;99.90;;;;;;5018819;28;20468;-49
2023/07/26 06:33:24;;;;;;;7.63;3.92;;;16.10;99.90;;;;;;5026592;28;20068;-47
2023/07/26 06:35:54;;;;;;;10.48;4.25;;;16.10;99.90;;;;;;5016106;28;20509;-47
2023/07/26 06:38:22;;;;;;;7.57;4.07;;;16.10;99.90;;;;;;5020423;28;20392;-48
2023/07/26 06:40:50;;;;;;;6.60;3.70;;;16.20;99.90;;;;;;5018690;28;20050;-48
2023/07/26 06:43:17;;;;;;;9.60;4.60;;;16.30;99.90;;;;;;5033076;28;20041;-46
2023/07/26 06:45:50;;;;;;;6.00;4.25;;;16.30;99.90;;;;;;5020619;28;20069;-47
2023/07/26 06:48:20;;;;;;;11.00;4.50;;;16.30;99.90;;;;;;5021810;28;20564;-47
2023/07/26 06:50:47;;;;;;;6.90;4.43;;;16.10;99.90;;;;;;5023360;28;20033;-46
2023/07/26 06:53:15;;;;;;;9.35;4.40;;;16.30;99.90;;;;;;5018464;28;20073;-47
2023/07/26 06:55:42;;;;;;;4.93;4.13;;;16.40;99.90;;;;;;5023273;28;20348;-48
2023/07/26 06:58:10;;;;;;;8.70;4.47;;;16.70;99.90;;;;;;5020586;28;20045;-48
2023/07/26 07:00:38;;;;;;;5.38;3.85;;;16.80;99.90;;;;;;5023931;28;20038;-47
2023/07/26 07:03:05;;;;;;;7.20;4.38;;;16.70;99.90;;;;;;5021528;28;20436;-47
2023/07/26 07:05:35;;;;;;;7.35;4.22;;;16.90;99.90;;;;;;5024151;28;20124;-47
2023/07/26 07:08:03;;;;;;;7.38;5.18;;;17.00;99.90;;;;;;5023788;28;20095;-47
2023/07/26 07:10:30;;;;;;;8.65;4.30;;;17.40;99.90;;;;;;5023311;28;20087;-47
2023/07/26 07:12:57;;;;;;;7.88;4.72;;;17.40;99.90;;;;;;5025887;28;20049;-48
2023/07/26 07:15:25;;;;;;;6.68;4.43;;;17.60;99.90;;;;;;5020077;28;20461;-48
2023/07/26 07:17:52;;;;;;;7.35;4.65;;;17.60;99.90;;;;;;5021625;28;20042;-47
2023/07/26 07:20:39;;;;;;;8.32;4.53;;;17.30;99.90;;;;;;5026387;28;20053;-48
2023/07/26 07:23:08;;;;;;;9.48;4.40;;;17.40;99.90;;;;;;5026107;28;20036;-46
2023/07/26 07:25:39;;;;;;;12.13;4.55;;;17.40;99.90;;;;;;5018544;28;20084;-48
2023/07/26 07:28:07;;;;;;;7.43;3.97;;;17.50;99.90;;;;;;5027544;28;20095;-41
2023/07/26 07:30:34;;;;;;;10.93;4.63;;;17.90;99.90;;;;;;5027461;28;20109;-41
2023/07/26 07:33:02;;;;;;;7.28;4.07;;;18.00;99.90;;;;;;5026539;28;20522;-43
2023/07/26 07:35:29;;;;;;;15.65;4.07;;;18.20;99.90;;;;;;5017355;28;20054;-45
2023/07/26 07:37:56;;;;;;;6.55;3.80;;;18.10;99.90;;;;;;5018957;28;20100;-39
2023/07/26 07:40:24;;;;;;;7.53;4.50;;;18.30;99.90;;;;;;5028883;28;20045;-41
2023/07/26 07:42:51;;;;;;;6.78;4.40;;;18.10;99.90;;;;;;5027188;28;20056;-40
2023/07/26 07:45:19;;;;;;;7.25;3.92;;;18.20;99.90;;;;;;5023684;28;20046;-42
2023/07/26 07:47:46;;;;;;;7.38;4.18;;;18.20;99.90;;;;;;5028129;28;20371;-44
2023/07/26 07:50:14;;;;;;;6.38;3.92;;;18.30;99.90;;;;;;5029260;28;20092;-43
2023/07/26 07:52:41;;;;;;;8.13;4.78;;;18.30;99.90;;;;;;5025047;28;20156;-39
2023/07/26 07:55:09;;;;;;;7.43;3.60;;;18.20;99.90;;;;;;5021305;28;20046;-42
2023/07/26 07:57:36;;;;;;;6.53;4.20;;;18.40;99.90;;;;;;5022330;28;20058;-44
2023/07/26 08:00:04;;;;;;;7.75;4.30;;;18.20;99.90;;;;;;5030493;28;20060;-43
2023/07/26 08:02:37;;;;;;;6.10;3.72;;;18.40;99.90;;;;;;5025175;28;20052;-40
2023/07/26 08:05:05;;;;;;;6.00;3.63;;;18.70;99.90;;;;;;5039940;28;20457;-42
2023/07/26 08:07:32;;;;;;;7.00;3.67;;;18.60;99.90;;;;;;5032240;28;20422;-44
2023/07/26 08:10:00;;;;;;;6.57;4.05;;;18.50;99.90;;;;;;5032227;28;20042;-41
2023/07/26 08:12:27;;;;;;;6.63;3.90;;;18.80;99.90;;;;;;5032682;28;20033;-40
2023/07/26 08:14:55;;;;;;;5.78;3.90;;;18.40;99.90;;;;;;5025497;28;20041;-42
2023/07/26 08:17:22;;;;;;;5.63;3.78;;;18.30;99.90;;;;;;5026794;28;20502;-38
2023/07/26 08:19:50;;;;;;;6.50;3.80;;;18.30;99.90;;;;;;5031914;28;20497;-42
2023/07/26 08:22:17;;;;;;;7.25;4.20;;;18.60;99.90;;;;;;5033766;28;20037;-42
2023/07/26 08:24:45;;;;;;;7.28;4.55;;;18.60;99.90;;;;;;5032278;28;20045;-40
2023/07/26 08:27:13;;;;;;;7.30;3.95;;;18.40;99.90;;;;;;5029643;28;20037;-44
2023/07/26 08:29:40;;;;;;;7.72;4.47;;;18.60;99.90;;;;;;5029685;28;20057;-41
2023/07/26 08:32:08;;;;;;;8.65;4.57;;;19.00;99.90;;;;;;5029473;28;20107;-41
2023/07/26 08:34:35;;;;;;;6.07;4.22;;;19.20;99.90;;;;;;5025810;28;20049;-41
2023/07/26 08:37:02;;;;;;;9.32;4.57;;;18.80;99.90;;;;;;5029599;28;20073;-41
2023/07/26 08:39:30;;;;;;;5.15;4.13;;;18.70;99.90;;;;;;5037009;28;20073;-43
2023/07/26 08:42:03;;;;;;;5.88;4.20;;;18.30;99.90;;;;;;5030203;28;20509;-43
2023/07/26 08:44:32;;;;;;;4.32;3.75;;;18.20;99.90;;;;;;5023079;28;20060;-42
2023/07/26 08:47:03;;;;;;;7.50;4.72;;;17.90;99.90;;;;;;5023590;28;20041;-42
2023/07/26 08:49:32;;;;;;;6.68;4.63;;;17.70;99.90;;;;;;5024934;28;20041;-42
2023/07/26 08:52:02;;;;;;;7.03;5.13;;;17.60;99.90;;;;;;5030071;28;20057;-42
2023/07/26 08:54:31;;;;;;;9.95;5.10;;;17.70;99.90;;;;;;5023525;28;20422;-43
2023/07/26 08:56:58;;;;;;;9.90;5.88;;;17.60;99.90;;;;;;5031805;28;20053;-41
2023/07/26 08:59:25;;;;;;;8.68;5.18;;;17.70;99.90;;;;;;5031659;28;20172;-42
2023/07/26 09:01:56;;;;;;;7.72;5.40;;;17.80;99.90;;;;;;5027997;28;20072;-42
2023/07/26 09:04:31;;;;;;;8.63;6.80;;;18.10;99.90;;;;;;5025898;28;20149;-42
2023/07/26 09:07:05;;;;;;;9.45;6.32;;;18.10;99.90;;;;;;5033384;28;20447;-42
2023/07/26 09:09:34;;;;;;;10.43;6.70;;;18.20;99.90;;;;;;5034787;28;20041;-44
2023/07/26 09:12:02;;;;;;;11.35;6.00;;;18.30;99.90;;;;;;5036361;28;20585;-41
2023/07/26 09:14:32;;;;;;;7.63;5.90;;;18.10;99.90;;;;;;5029753;28;20041;-41
2023/07/26 09:17:01;;;;;;;10.02;6.88;;;18.40;99.90;;;;;;5030692;28;20060;-41
2023/07/26 09:19:37;;;;;;;8.38;7.30;;;18.40;99.90;;;;;;5027793;28;20501;-42
2023/07/26 09:22:08;;;;;;;9.45;7.07;;;18.80;99.90;;;;;;5026370;28;20502;-44
2023/07/26 09:24:39;;;;;;;9.30;7.22;;;18.90;99.90;;;;;;5031530;28;20132;-44
2023/07/26 09:27:10;;;;;;;12.70;7.78;;;19.10;99.90;;;;;;5031669;28;20045;-44
2023/07/26 09:29:52;;;;;;;9.10;7.37;;;18.90;99.90;;;;;;5026766;28;20036;-41
2023/07/26 09:32:27;;;;;;;12.43;7.93;;;19.00;99.90;;;;;;5023337;28;20057;-42
2023/07/26 09:34:59;;;;;;;8.68;7.57;;;19.00;99.90;;;;;;5026319;28;20049;-42
2023/07/26 09:37:27;;;;;;;10.48;7.40;;;18.90;99.90;;;;;;5030143;28;20080;-42
2023/07/26 09:39:55;;;;;;;11.00;7.70;;;18.80;99.90;;;;;;5027558;28;20077;-40
2023/07/26 09:42:22;;;;;;;9.07;7.70;;;19.00;99.90;;;;;;5021210;28;20107;-39
2023/07/26 09:44:57;;;;;;;9.07;7.30;;;19.10;99.90;;;;;;5028873;28;20052;-42
2023/07/26 09:47:35;;;;;;;14.57;7.40;;;19.10;99.90;;;;;;5028760;28;20473;-45
2023/07/26 09:50:22;;;;;;;10.15;7.60;;;19.10;99.90;;;;;;5031483;28;20049;-41
2023/07/26 09:53:05;;;;;;;11.15;7.18;;;19.10;99.90;;;;;;5022100;28;20041;-42
2023/07/26 09:55:33;;;;;;;10.93;7.55;;;19.20;99.90;;;;;;5028213;28;20117;-44
2023/07/26 09:58:01;;;;;;;11.57;7.40;;;19.00;99.90;;;;;;5032594;28;20069;-41
2023/07/26 10:00:29;;;;;;;11.65;8.52;;;19.00;99.90;;;;;;5028545;28;20048;-44
2023/07/26 10:03:04;;;;;;;10.82;8.00;;;18.60;99.90;;;;;;5029902;28;20053;-44
2023/07/26 10:05:41;;;;;;;9.52;7.32;;;18.60;99.90;;;;;;5028952;28;20430;-44
2023/07/26 10:08:09;;;;;;;10.65;8.40;;;18.50;99.90;;;;;;5024636;28;20050;-39
2023/07/26 10:10:37;;;;;;;11.93;9.30;;;18.50;99.90;;;;;;5034649;28;20049;-40
2023/07/26 10:13:05;;;;;;;10.75;8.77;;;18.20;99.90;;;;;;5036547;28;20049;-41
2023/07/26 10:15:33;;;;;;;11.05;8.52;;;18.10;99.90;;;;;;5040466;28;20100;-40
2023/07/26 10:18:01;;;;;;;11.27;8.05;;;18.00;99.90;;;;;;5029350;28;20057;-39
2023/07/26 10:20:30;;;;;;;11.35;7.75;;;17.80;99.90;;;;;;5031208;28;20415;-38
2023/07/26 10:23:04;;;;;;;9.90;8.32;;;17.00;99.90;;;;;;5030485;28;20393;-37
2023/07/26 10:25:33;;;;;;;7.68;6.88;;;16.40;99.90;;;;;;5029961;28;20041;-39
2023/07/26 10:28:01;;;;;;;6.85;5.55;;;15.90;99.90;;;;;;5024956;28;20072;-38
2023/07/26 10:30:29;;;;;;;11.13;6.10;;;14.50;99.90;;;;;;5028814;28;20124;-39
2023/07/26 10:32:59;;;;;;;10.07;7.35;;;13.40;99.90;;;;;;5022058;28;20588;-38
2023/07/26 10:35:32;;;;;;;13.68;7.13;;;12.50;99.90;;;;;;5027934;28;20041;-38
2023/07/26 10:38:02;;;;;;;11.15;7.40;;;11.80;99.90;;;;;;5027324;28;20053;-38
2023/07/26 10:40:33;;;;;;;9.45;6.75;;;11.60;99.90;;;;;;5023321;28;20514;-37
2023/07/26 10:43:20;;;;;;;9.13;6.47;;;11.50;99.90;;;;;;5029298;28;20520;-38
2023/07/26 10:46:06;;;;;;;14.30;7.55;;;11.40;99.90;;;;;;5021510;28;20041;-35
2023/07/26 10:48:41;;;;;;;10.82;7.40;;;11.50;99.90;;;;;;5027762;28;20029;-37
2023/07/26 10:51:28;;;;;;;13.15;8.38;;;11.60;99.90;;;;;;5025768;28;20056;-37
2023/07/26 10:53:57;;;;;;;11.27;7.85;;;11.80;99.90;;;;;;5024504;28;20201;-37
2023/07/26 10:56:26;;;;;;;11.55;7.55;;;12.10;99.90;;;;;;5024253;28;20049;-37
2023/07/26 10:58:55;;;;;;;9.43;7.10;;;12.50;99.90;;;;;;5026037;28;20053;-36
2023/07/26 11:01:32;;;;;;;7.15;5.85;;;12.90;99.90;;;;;;5028227;28;20077;-38
2023/07/26 11:04:00;;;;;;;9.45;5.90;;;13.60;99.90;;;;;;5027050;28;20053;-39
2023/07/26 11:06:50;;;;;;;8.45;5.28;;;14.30;99.90;;;;;;5026558;28;20038;-37
2023/07/26 11:09:30;;;;;;;7.53;5.38;;;14.80;99.90;;;;;;5023774;28;20042;-38
2023/07/26 11:12:03;;;;;;;7.85;5.55;;;15.50;99.90;;;;;;5021447;28;20603;-37
2023/07/26 11:14:32;;;;;;;12.38;5.85;;;15.70;99.90;;;;;;5028899;28;20111;-39
2023/07/26 11:17:10;;;;;;;7.65;5.65;;;16.20;99.90;;;;;;5028087;28;20100;-37
2023/07/26 11:19:48;;;;;;;6.95;5.15;;;16.10;99.90;;;;;;5028365;28;20068;-37
2023/07/26 11:22:18;;;;;;;8.45;5.93;;;16.50;99.90;;;;;;5029807;28;20045;-38
2023/07/26 11:24:46;;;;;;;9.32;5.50;;;16.90;99.90;;;;;;5030903;28;20049;-37
2023/07/26 11:27:16;;;;;;;8.05;5.70;;;16.80;99.90;;;;;;5028878;28;20518;-38
2023/07/26 11:29:43;;;;;;;9.00;6.20;;;16.80;99.90;;;;;;5030854;28;20123;-37
2023/07/26 11:32:23;;;;;;;7.45;5.72;;;17.20;99.90;;;;;;5023017;28;20485;-38
2023/07/26 11:34:54;;;;;;;8.10;5.75;;;17.20;99.90;;;;;;5031933;28;20115;-36
2023/07/26 11:37:22;;;;;;;8.80;5.65;;;17.60;99.90;;;;;;5027595;28;20053;-42
2023/07/26 11:40:06;;;;;;;6.07;5.38;;;17.90;99.90;;;;;;5030693;28;20107;-38
2023/07/26 11:42:34;;;;;;;6.70;5.00;;;18.30;99.90;;;;;;5027112;28;20119;-42
2023/07/26 11:45:03;;;;;;;9.05;4.88;;;18.80;99.90;;;;;;5029547;28;20732;-42
2023/07/26 11:47:35;;;;;;;6.05;4.90;;;19.00;99.90;;;;;;5029079;28;20149;-44
2023/07/26 11:50:03;;;;;;;;;;;19.70;99.90;;;;;;5027134;28;20406;-40
2023/07/26 11:52:30;;;;;;;6.82;5.40;;;20.00;99.90;;;;;;5029903;28;19921;-43
2023/07/26 11:54:59;;;;;;;7.40;4.90;;;20.40;99.90;;;;;;5028723;28;20506;-43
2023/07/26 11:57:27;;;;;;;6.95;5.07;;;20.50;99.90;;;;;;5026610;28;20132;-43
2023/07/26 11:59:56;;;;;;;6.00;4.55;;;20.20;99.90;;;;;;5029466;28;20046;-44
2023/07/26 12:02:24;;;;;;;5.47;4.72;;;20.50;99.90;;;;;;5028972;28;20038;-43
2023/07/26 12:05:20;;;;;;;5.05;4.55;;;20.10;99.90;;;;;;5029312;28;20052;-44
2023/07/26 12:07:50;;;;;;;5.28;4.30;;;19.80;99.90;;;;;;5023819;28;20550;-44
2023/07/26 12:10:30;;;;;;;7.07;4.80;;;19.50;99.90;;;;;;5028917;28;20410;-40
2023/07/26 12:12:59;;;;;;;6.78;5.13;;;19.10;99.90;;;;;;5026262;28;20056;-43
2023/07/26 12:15:27;;;;;;;5.40;4.60;;;19.00;99.90;;;;;;5029507;28;20049;-44
2023/07/26 12:17:55;;;;;;;5.90;5.30;;;18.50;99.90;;;;;;5029215;28;20108;-45
2023/07/26 12:20:24;;;;;;;5.88;5.13;;;18.30;99.90;;;;;;5028504;28;20056;-44
2023/07/26 12:23:06;;;;;;;6.28;4.97;;;18.20;99.90;;;;;;5034227;28;20042;-42
2023/07/26 12:25:37;;;;;;;6.63;4.30;;;18.30;99.90;;;;;;5028484;28;20045;-43
2023/07/26 12:28:06;;;;;;;;;;;18.60;99.90;;;;;;5028835;28;20049;-44
2023/07/26 12:30:34;;;;;;;5.22;4.47;;;18.60;99.90;;;;;;5024914;28;19929;-44
2023/07/26 12:33:12;;;;;;;5.95;4.47;;;18.70;99.90;;;;;;5028522;28;20135;-42
2023/07/26 12:35:44;;;;;;;6.60;4.63;;;19.10;99.90;;;;;;5026087;28;20053;-43
2023/07/26 12:38:17;;;;;;;5.10;4.47;;;19.20;99.90;;;;;;5024546;28;20080;-42
2023/07/26 12:40:46;;;;;;;6.75;4.05;;;19.40;99.90;;;;;;5027070;28;20050;-44
2023/07/26 12:43:30;;;;;;;4.57;4.18;;;19.70;99.90;;;;;;5029921;28;20568;-44
2023/07/26 12:46:02;;;;;;;6.60;5.15;;;20.10;99.90;;;;;;5024199;28;20133;-45
2023/07/26 12:48:30;;;;;;;7.28;5.18;;;20.00;99.90;;;;;;5025334;28;20045;-44
2023/07/26 12:50:58;;;;;;;5.30;4.80;;;19.90;99.90;;;;;;5027380;28;20132;-42
2023/07/26 12:53:26;;;;;;;5.68;4.70;;;21.20;99.90;;;;;;5022802;28;20049;-45
2023/07/26 12:55:53;;;;;;;5.97;5.00;;;22.30;99.90;;;;;;5026145;28;20077;-44